createdAt,value
2018-12-29T00:01:59.934Z,11.00
2018-12-29T00:07:05.968Z,10.97
2018-12-29T00:12:11.399Z,11.05
2018-12-29T00:17:16.672Z,11.03
2018-12-29T00:22:22.105Z,11.09
2018-12-29T00:27:27.468Z,11.06
2018-12-29T00:32:32.669Z,11.05
2018-12-29T00:37:38.443Z,11.05
2018-12-29T00:42:43.821Z,11.02
2018-12-29T00:47:49.066Z,11.05
2018-12-29T00:52:54.440Z,11.02
2018-12-29T00:57:59.770Z,11.07
2018-12-29T01:03:05.150Z,11.11
2018-12-29T01:08:10.410Z,11.05
2018-12-29T01:13:15.794Z,11.13
2018-12-29T01:18:21.045Z,11.13
2018-12-29T01:23:26.472Z,11.04
2018-12-29T01:28:31.695Z,10.98
2018-12-29T01:33:37.095Z,10.94
2018-12-29T01:38:42.500Z,10.93
2018-12-29T01:49:06.040Z,10.94
2018-12-29T01:54:11.714Z,10.94
2018-12-29T02:04:48.013Z,10.90
2018-12-29T02:15:05.519Z,10.96
2018-12-29T02:25:45.235Z,10.92
2018-12-29T02:30:50.630Z,10.88
2018-12-29T02:35:55.936Z,10.84
2018-12-29T02:41:01.214Z,10.85
2018-12-29T02:46:06.478Z,10.88
2018-12-29T02:51:17.629Z,10.91
2018-12-29T02:56:23.460Z,10.92
2018-12-29T03:01:28.922Z,10.92
2018-12-29T03:12:05.604Z,10.91
2018-12-29T03:22:16.371Z,10.96
2018-12-29T03:27:21.677Z,10.86
2018-12-29T03:32:27.097Z,10.88
2018-12-29T03:37:32.466Z,10.90
2018-12-29T03:42:43.431Z,10.91
2018-12-29T03:47:48.771Z,10.96
2018-12-29T03:52:54.050Z,10.96
2018-12-29T03:57:59.444Z,10.94
2018-12-29T04:03:04.851Z,10.99
2018-12-29T04:08:10.198Z,11.06
2018-12-29T04:13:15.630Z,11.12
2018-12-29T04:18:20.947Z,11.11
2018-12-29T04:23:26.275Z,11.13
2018-12-29T04:28:32.011Z,11.12
2018-12-29T04:33:37.460Z,11.07
2018-12-29T04:38:42.918Z,11.16
2018-12-29T04:43:48.350Z,11.10
2018-12-29T04:48:54.320Z,11.07
2018-12-29T04:53:59.638Z,11.08
2018-12-29T04:59:05.072Z,11.08
2018-12-29T05:04:10.369Z,11.07
2018-12-29T05:09:15.654Z,11.07
2018-12-29T05:14:21.094Z,11.03
2018-12-29T05:19:26.605Z,11.00
2018-12-29T05:24:31.889Z,11.01
2018-12-29T05:29:37.235Z,10.94
2018-12-29T05:34:42.422Z,11.00
2018-12-29T05:39:47.854Z,10.93
2018-12-29T05:44:53.235Z,10.88
2018-12-29T05:49:58.778Z,10.79
2018-12-29T05:55:04.127Z,10.82
2018-12-29T06:00:09.630Z,10.79
2018-12-29T06:05:15.016Z,10.80
2018-12-29T06:10:20.391Z,10.74
2018-12-29T06:15:25.665Z,10.78
2018-12-29T06:20:30.977Z,10.77
2018-12-29T06:25:36.457Z,10.73
2018-12-29T06:30:41.710Z,10.73
2018-12-29T06:35:46.999Z,10.75
2018-12-29T06:40:52.465Z,10.73
2018-12-29T06:45:57.890Z,10.66
2018-12-29T06:51:03.621Z,10.64
2018-12-29T06:56:09.010Z,10.71
2018-12-29T07:01:14.300Z,10.68
2018-12-29T07:06:19.556Z,10.71
2018-12-29T07:11:24.900Z,10.72
2018-12-29T07:16:30.130Z,10.72
2018-12-29T07:21:35.485Z,10.73
2018-12-29T07:26:40.815Z,10.77
2018-12-29T07:31:46.215Z,10.75
2018-12-29T07:36:51.656Z,10.67
2018-12-29T07:41:56.986Z,10.69
2018-12-29T07:47:02.283Z,10.71
2018-12-29T07:52:07.746Z,10.69
2018-12-29T07:57:20.255Z,10.69
2018-12-29T08:02:25.519Z,10.65
2018-12-29T08:07:30.809Z,10.62
2018-12-29T08:12:36.216Z,10.59
2018-12-29T08:17:42.726Z,10.56
2018-12-29T08:22:48.027Z,10.56
2018-12-29T08:27:53.499Z,10.65
2018-12-29T08:32:58.932Z,10.73
2018-12-29T08:38:04.248Z,10.76
2018-12-29T08:43:09.814Z,10.76
2018-12-29T08:48:15.017Z,10.75
2018-12-29T08:53:20.470Z,10.87
2018-12-29T08:58:25.720Z,10.79
2018-12-29T09:03:31.138Z,10.78
2018-12-29T09:08:36.672Z,10.82
2018-12-29T09:13:42.074Z,10.76
2018-12-29T09:18:49.791Z,10.78
2018-12-29T09:23:54.510Z,10.79
2018-12-29T09:28:59.820Z,10.83
2018-12-29T09:34:05.198Z,10.82
2018-12-29T09:39:10.834Z,10.79
2018-12-29T09:44:16.249Z,10.86
2018-12-29T09:49:21.431Z,10.97
2018-12-29T09:54:26.850Z,10.86
2018-12-29T09:59:32.516Z,10.75
2018-12-29T10:04:37.855Z,10.81
2018-12-29T10:09:43.166Z,10.88
2018-12-29T10:14:46.550Z,10.82
2018-12-29T10:19:51.802Z,10.86
2018-12-29T10:24:57.283Z,10.89
2018-12-29T10:30:02.553Z,10.90
2018-12-29T10:35:08.206Z,10.96
2018-12-29T10:40:13.670Z,10.88
2018-12-29T10:45:19.011Z,10.91
2018-12-29T10:50:24.381Z,10.77
2018-12-29T10:55:29.752Z,10.92
2018-12-29T11:00:35.397Z,11.10
2018-12-29T11:05:40.921Z,11.40
2018-12-29T11:10:46.212Z,11.40
2018-12-29T11:15:51.687Z,11.16
2018-12-29T11:20:56.876Z,11.22
2018-12-29T11:26:02.326Z,11.34
2018-12-29T11:31:07.657Z,11.30
2018-12-29T11:36:13.036Z,11.27
2018-12-29T11:41:18.191Z,11.29
2018-12-29T11:46:23.781Z,11.12
2018-12-29T11:51:29.156Z,11.24
2018-12-29T11:56:34.508Z,11.23
2018-12-29T12:01:39.931Z,11.16
2018-12-29T12:06:45.311Z,11.28
2018-12-29T12:11:51.011Z,11.32
2018-12-29T12:16:56.331Z,11.32
2018-12-29T12:22:01.770Z,11.37
2018-12-29T12:27:07.311Z,11.28
2018-12-29T12:32:13.231Z,11.27
2018-12-29T12:37:18.871Z,11.13
2018-12-29T12:47:35.887Z,11.20
2018-12-29T12:52:41.406Z,11.28
2018-12-29T12:57:46.701Z,11.36
2018-12-29T13:02:52.682Z,11.26
2018-12-29T13:07:58.216Z,11.27
2018-12-29T13:13:03.634Z,11.24
2018-12-29T13:18:12.990Z,11.16
2018-12-29T13:28:53.703Z,11.15
2018-12-29T13:33:59.176Z,11.14
2018-12-29T13:39:02.641Z,11.04
2018-12-29T13:44:07.937Z,11.03
2018-12-29T13:49:13.436Z,10.94
2018-12-29T13:54:18.850Z,10.95
2018-12-29T13:59:24.317Z,10.96
2018-12-29T14:04:29.695Z,10.99
2018-12-29T14:09:35.236Z,11.05
2018-12-29T14:14:40.495Z,11.08
2018-12-29T14:19:45.955Z,11.06
2018-12-29T14:24:51.722Z,11.09
2018-12-29T14:29:57.135Z,11.11
2018-12-29T14:35:03.079Z,11.10
2018-12-29T14:40:08.675Z,11.02
2018-12-29T14:45:14.016Z,10.94
2018-12-29T14:50:19.622Z,11.12
2018-12-29T14:55:25.175Z,11.21
2018-12-29T15:00:30.730Z,11.26
2018-12-29T15:05:36.125Z,11.26
2018-12-29T15:10:41.431Z,11.11
2018-12-29T15:15:47.242Z,11.06
2018-12-29T15:20:53.122Z,11.13
2018-12-29T15:25:58.400Z,11.21
2018-12-29T15:31:04.116Z,11.27
2018-12-29T15:36:15.978Z,11.16
2018-12-29T15:41:16.920Z,10.95
2018-12-29T15:46:22.376Z,10.93
2018-12-29T15:51:28.010Z,11.04
2018-12-29T15:56:33.396Z,11.08
2018-12-29T16:01:39.850Z,11.06
2018-12-29T16:06:45.417Z,11.15
2018-12-29T16:11:50.875Z,10.85
2018-12-29T16:16:56.347Z,10.83
2018-12-29T16:22:02.097Z,10.77
2018-12-29T16:27:07.516Z,10.81
2018-12-29T16:32:13.077Z,10.80
2018-12-29T16:37:18.556Z,10.77
2018-12-29T16:42:23.977Z,10.64
2018-12-29T16:47:29.397Z,10.66
2018-12-29T16:52:34.897Z,10.77
2018-12-29T16:57:41.037Z,10.86
2018-12-29T17:02:46.656Z,10.81
2018-12-29T17:07:52.277Z,10.97
2018-12-29T17:12:57.817Z,10.79
2018-12-29T17:18:03.327Z,10.66
2018-12-29T17:23:08.737Z,10.57
2018-12-29T17:28:14.336Z,10.26
2018-12-29T17:33:19.901Z,10.17
2018-12-29T17:38:25.197Z,10.32
2018-12-29T17:43:30.786Z,10.42
2018-12-29T17:48:36.119Z,10.48
2018-12-29T17:53:47.947Z,10.47
2018-12-29T17:58:48.854Z,10.64
2018-12-29T18:03:54.294Z,10.72
2018-12-29T18:08:59.707Z,10.64
2018-12-29T18:14:05.098Z,10.57
2018-12-29T18:19:10.528Z,10.74
2018-12-29T18:24:16.171Z,10.81
2018-12-29T18:29:21.580Z,10.89
2018-12-29T18:34:27.437Z,10.89
2018-12-29T18:39:32.856Z,11.09
2018-12-29T18:44:38.354Z,11.11
2018-12-29T18:49:43.859Z,11.07
2018-12-29T18:54:49.531Z,11.13
2018-12-29T18:59:55.126Z,11.08
2018-12-29T19:05:00.550Z,11.03
2018-12-29T19:10:06.196Z,10.99
2018-12-29T19:15:11.774Z,10.96
2018-12-29T19:20:17.755Z,10.99
2018-12-29T19:25:23.657Z,11.03
2018-12-29T19:30:29.103Z,10.99
2018-12-29T19:35:34.962Z,11.02
2018-12-29T19:40:40.508Z,11.12
2018-12-29T19:45:46.426Z,10.98
2018-12-29T19:50:51.740Z,10.75
2018-12-29T19:55:57.574Z,10.69
2018-12-29T20:01:02.885Z,10.64
2018-12-29T20:06:11.276Z,10.77
2018-12-29T20:11:16.063Z,10.65
2018-12-29T20:16:21.982Z,10.80
2018-12-29T20:21:27.406Z,11.01
2018-12-29T20:26:33.111Z,11.05
2018-12-29T20:31:38.744Z,11.00
2018-12-29T20:36:44.364Z,11.12
2018-12-29T20:41:49.863Z,11.10
2018-12-29T20:46:57.043Z,10.99
2018-12-29T20:52:02.582Z,11.14
2018-12-29T20:57:07.922Z,11.32
2018-12-29T21:02:13.362Z,11.16
2018-12-29T21:07:18.941Z,11.13
2018-12-29T21:12:24.376Z,11.06
2018-12-29T21:17:29.978Z,11.03
2018-12-29T21:22:35.702Z,10.98
2018-12-29T21:27:41.351Z,10.94
2018-12-29T21:32:47.226Z,10.91
2018-12-29T21:37:52.741Z,10.85
2018-12-29T21:42:58.372Z,10.77
2018-12-29T21:48:03.922Z,10.76
2018-12-29T21:53:09.425Z,10.72
2018-12-29T21:58:15.068Z,10.54
2018-12-29T22:03:20.423Z,10.36
2018-12-29T22:08:26.563Z,10.34
2018-12-29T22:13:31.869Z,10.45
2018-12-29T22:18:37.539Z,10.53
2018-12-29T22:23:42.906Z,10.54
2018-12-29T22:28:48.295Z,10.49
2018-12-29T22:33:53.594Z,10.47
2018-12-29T22:38:59.072Z,10.64
2018-12-29T22:44:04.784Z,10.64
2018-12-29T22:49:10.092Z,10.72
2018-12-29T22:54:15.535Z,10.77
2018-12-29T22:59:20.784Z,10.68
2018-12-29T23:04:26.200Z,10.65
2018-12-29T23:09:31.574Z,10.71
2018-12-29T23:14:36.850Z,10.66
2018-12-29T23:19:42.543Z,10.75
2018-12-29T23:24:49.182Z,10.93
2018-12-29T23:29:54.964Z,10.65
2018-12-29T23:35:00.258Z,10.64
2018-12-29T23:40:05.989Z,10.65
2018-12-29T23:45:11.514Z,10.62
2018-12-29T23:50:17.334Z,10.59
2018-12-29T23:55:23.104Z,10.45
